Aeneas, Washington
Current Conditions -  °F | °C
As of 9:53 AM on Thursday 27 Nov 2014 (Local Time) from KOMK Reporting Station
Broken Clouds Broken Clouds  
Wind Chill: 32°   Ceiling: 400
Heat Index: 37°   Visibility: 10mi
Dew Point: 35°   Wind: 7mph
Humidity: 93%   Direction: 140°SE
Pressure: 29.8"   Gusts: NA
Location:  48.6708°N, 119.278°W
Report Text: KOMK 271753Z AUTO 14006KT 10SM BKN004 03/02 A2980 RMK AO2 SLP103 T00280017 10028 20011 55003
Loading
Personal Weather Stations






























Interactive Weather Map New forecast layout! Learn more

10-Day Weather Forecast

Advertisements
Track Severe Weather on mobile